Time;durP1;ratioP1;P1;durP2;ratioP2;P2;SDS_P1;SDS_P2;PMS_P1;PMS_P2;Temp;Humidity;BMP_temperature;BMP_pressure;BME280_temperature;BME280_humidity;BME280_pressure;Samples;Min_cycle;Max_cycle;Signal;HPM_P1;HPM_P2
2021/04/26 00:01:23;;;;;;;6.45;4.55;;;5.30;99.90;;;;;;5012769;28;20029;-73
2021/04/26 00:03:49;;;;;;;7.68;4.53;;;5.30;99.90;;;;;;5003443;28;20029;-73
2021/04/26 00:06:14;;;;;;;10.18;5.00;;;5.40;99.90;;;;;;5017889;28;20022;-74
2021/04/26 00:08:40;;;;;;;5.90;4.30;;;5.20;99.90;;;;;;5010803;28;20113;-74
2021/04/26 00:11:06;;;;;;;6.50;4.55;;;5.20;99.90;;;;;;5011599;28;20154;-74
2021/04/26 00:13:31;;;;;;;6.95;4.38;;;5.30;99.90;;;;;;5013149;28;20022;-74
2021/04/26 00:15:57;;;;;;;7.97;4.50;;;5.30;99.90;;;;;;5013088;28;20369;-74
2021/04/26 00:18:22;;;;;;;6.30;3.90;;;5.20;99.90;;;;;;5012969;28;20458;-74
2021/04/26 00:20:48;;;;;;;5.40;4.30;;;5.20;99.90;;;;;;4999753;28;20037;-75
2021/04/26 00:23:13;;;;;;;6.57;4.47;;;5.10;99.90;;;;;;5012015;28;20029;-75
2021/04/26 00:25:39;;;;;;;6.07;4.00;;;5.10;99.90;;;;;;5011194;28;20116;-74
2021/04/26 00:28:05;;;;;;;6.18;4.45;;;5.20;99.90;;;;;;5012750;28;20088;-75
2021/04/26 00:30:31;;;;;;;6.20;4.22;;;5.10;99.90;;;;;;5011278;28;20029;-74
2021/04/26 00:32:57;;;;;;;6.45;4.38;;;5.10;99.90;;;;;;5012466;28;20030;-74
2021/04/26 00:35:23;;;;;;;8.13;4.70;;;5.00;99.90;;;;;;5012323;28;20022;-75
2021/04/26 00:37:49;;;;;;;7.15;4.75;;;5.00;99.90;;;;;;5011227;28;20080;-75
2021/04/26 00:40:16;;;;;;;7.50;4.50;;;5.10;99.90;;;;;;4998017;28;20030;-75
2021/04/26 00:42:42;;;;;;;8.38;5.25;;;5.10;99.90;;;;;;5012338;28;20036;-75
2021/04/26 00:45:11;;;;;;;6.93;4.70;;;5.10;99.90;;;;;;5010796;28;20498;-75
2021/04/26 00:47:42;;;;;;;7.60;4.50;;;5.10;99.90;;;;;;5012442;28;20072;-74
2021/04/26 00:50:11;;;;;;;7.43;4.65;;;5.10;99.90;;;;;;5012203;28;20025;-73
2021/04/26 00:52:37;;;;;;;9.98;5.30;;;5.00;99.90;;;;;;5012177;28;20026;-74
2021/04/26 00:55:04;;;;;;;10.23;5.60;;;4.90;99.90;;;;;;5012061;28;20030;-74
2021/04/26 00:57:29;;;;;;;7.03;4.90;;;4.90;99.90;;;;;;5012383;28;20045;-74
2021/04/26 00:59:55;;;;;;;7.30;5.35;;;4.90;99.90;;;;;;5012063;28;20030;-74
2021/04/26 01:02:23;;;;;;;8.45;4.97;;;5.00;99.90;;;;;;5012160;28;20026;-74
2021/04/26 01:04:49;;;;;;;6.72;5.00;;;4.90;99.90;;;;;;5007961;28;20443;-74
2021/04/26 01:07:15;;;;;;;6.68;4.45;;;4.80;99.90;;;;;;5022045;28;20097;-74
2021/04/26 01:09:40;;;;;;;7.40;4.60;;;4.70;99.90;;;;;;5012069;28;20464;-74
2021/04/26 01:12:09;;;;;;;7.97;5.00;;;4.70;99.90;;;;;;5011920;28;20057;-72
2021/04/26 01:14:39;;;;;;;6.65;5.22;;;4.70;99.90;;;;;;5011647;28;20022;-73
2021/04/26 01:17:11;;;;;;;7.00;5.20;;;4.70;99.90;;;;;;5010833;28;20061;-72
2021/04/26 01:20:03;;;;;;;6.35;4.88;;;4.60;99.90;;;;;;5012071;28;20026;-72
2021/04/26 01:22:36;;;;;;;7.15;5.05;;;4.60;99.90;;;;;;5011860;28;20022;-73
2021/04/26 01:25:15;;;;;;;9.48;5.22;;;4.60;99.90;;;;;;5010435;28;20061;-73
2021/04/26 01:27:54;;;;;;;7.95;5.30;;;4.50;99.90;;;;;;5011816;28;20045;-73
2021/04/26 01:30:35;;;;;;;6.07;5.03;;;4.40;99.90;;;;;;5010568;28;20117;-74
2021/04/26 01:33:12;;;;;;;8.00;5.50;;;4.60;99.90;;;;;;5011692;28;20022;-72
2021/04/26 01:35:38;;;;;;;6.47;5.47;;;4.50;99.90;;;;;;5015642;28;20044;-72
2021/04/26 01:38:25;;;;;;;8.43;5.70;;;4.50;99.90;;;;;;5015720;28;20544;-74
2021/04/26 01:40:52;;;;;;;6.90;5.05;;;4.20;99.90;;;;;;5014339;28;20021;-73
2021/04/26 01:43:21;;;;;;;7.35;4.97;;;4.20;99.90;;;;;;5015650;28;20400;-74
2021/04/26 01:45:50;;;;;;;7.53;5.38;;;4.10;99.90;;;;;;5014066;28;20029;-72
2021/04/26 01:48:15;;;;;;;9.93;6.35;;;4.30;99.90;;;;;;5015602;28;20022;-74
2021/04/26 01:50:42;;;;;;;9.98;6.03;;;4.20;99.90;;;;;;5015460;28;20105;-73
2021/04/26 01:53:08;;;;;;;9.10;5.65;;;4.20;99.90;;;;;;5015474;28;20105;-74
2021/04/26 01:55:34;;;;;;;7.68;5.20;;;3.90;99.90;;;;;;5015230;28;20022;-74
2021/04/26 01:58:00;;;;;;;10.93;5.78;;;3.80;99.90;;;;;;5015387;28;20380;-74
2021/04/26 02:00:29;;;;;;;7.47;5.63;;;3.70;99.90;;;;;;5014024;28;20037;-72
2021/04/26 02:02:56;;;;;;;10.73;6.05;;;3.90;99.90;;;;;;5000883;28;20046;-72
2021/04/26 02:05:23;;;;;;;8.00;5.80;;;3.90;99.90;;;;;;5013714;28;20078;-73
2021/04/26 02:07:50;;;;;;;10.73;5.90;;;3.70;99.90;;;;;;5015210;28;20412;-73
2021/04/26 02:10:19;;;;;;;6.93;5.57;;;3.80;99.90;;;;;;5015276;28;20041;-73
2021/04/26 02:12:45;;;;;;;7.82;5.35;;;3.70;99.90;;;;;;5013817;28;20022;-73
2021/04/26 02:15:15;;;;;;;6.35;5.60;;;3.50;99.90;;;;;;5013606;28;20121;-72
2021/04/26 02:17:41;;;;;;;9.35;5.88;;;3.40;99.90;;;;;;5015022;28;20021;-74
2021/04/26 02:20:09;;;;;;;6.93;6.03;;;3.40;99.90;;;;;;5015137;28;20026;-73
2021/04/26 02:22:35;;;;;;;9.25;5.72;;;3.40;99.90;;;;;;5014977;28;20064;-74
2021/04/26 02:25:01;;;;;;;9.63;6.40;;;3.40;99.90;;;;;;5013375;28;20084;-74
2021/04/26 02:27:27;;;;;;;7.85;5.90;;;3.30;99.90;;;;;;5014924;28;20037;-75
2021/04/26 02:29:53;;;;;;;7.72;5.95;;;3.40;99.90;;;;;;5013587;28;20389;-72
2021/04/26 02:32:27;;;;;;;7.32;5.75;;;3.40;99.90;;;;;;5014846;28;20097;-74
2021/04/26 02:34:56;;;;;;;9.55;6.78;;;3.20;99.90;;;;;;5013474;28;20500;-75
2021/04/26 02:37:49;;;;;;;9.95;6.07;;;3.10;99.90;;;;;;5000206;28;20392;-74
2021/04/26 02:40:17;;;;;;;6.88;5.78;;;2.90;99.90;;;;;;5014738;28;20488;-75
2021/04/26 02:42:45;;;;;;;8.27;6.38;;;2.90;99.90;;;;;;5013196;28;20042;-74
2021/04/26 02:45:14;;;;;;;8.85;5.80;;;2.90;99.90;;;;;;5013585;28;20498;-73
2021/04/26 02:47:43;;;;;;;9.35;5.95;;;3.00;99.90;;;;;;5013362;28;20038;-74
2021/04/26 02:50:10;;;;;;;7.55;6.05;;;2.90;99.90;;;;;;5013262;28;20032;-75
2021/04/26 02:52:36;;;;;;;10.98;6.47;;;2.70;99.90;;;;;;5013182;28;20387;-73
2021/04/26 02:55:03;;;;;;;9.02;6.45;;;2.70;99.90;;;;;;5001063;28;20042;-73
2021/04/26 02:57:33;;;;;;;7.07;5.78;;;2.50;99.90;;;;;;5014423;28;20032;-73
2021/04/26 03:00:06;;;;;;;12.02;6.90;;;2.60;99.90;;;;;;5014465;28;20029;-73
2021/04/26 03:02:32;;;;;;;14.57;6.82;;;2.70;99.90;;;;;;5014361;28;20092;-73
2021/04/26 03:04:58;;;;;;;8.85;6.72;;;2.50;99.90;;;;;;5013494;28;20030;-73
2021/04/26 03:07:26;;;;;;;10.00;6.82;;;2.70;99.90;;;;;;5014224;28;20476;-73
2021/04/26 03:09:52;;;;;;;9.70;6.65;;;2.60;99.90;;;;;;5012857;28;20026;-73
2021/04/26 03:12:18;;;;;;;9.90;6.50;;;2.20;99.90;;;;;;5014057;28;20022;-73
2021/04/26 03:14:44;;;;;;;6.82;6.00;;;2.30;99.90;;;;;;5008167;28;20033;-73
2021/04/26 03:17:10;;;;;;;9.75;6.65;;;2.40;99.90;;;;;;5005397;28;20029;-73
2021/04/26 03:19:41;;;;;;;9.27;6.05;;;2.30;99.90;;;;;;5014074;28;20084;-73
2021/04/26 03:22:07;;;;;;;11.30;6.68;;;2.30;99.90;;;;;;5012693;28;20033;-73
2021/04/26 03:24:33;;;;;;;9.75;6.47;;;2.40;99.90;;;;;;5013644;28;20034;-73
2021/04/26 03:27:00;;;;;;;12.07;6.47;;;2.30;99.90;;;;;;5012491;28;20084;-73
2021/04/26 03:29:27;;;;;;;7.10;5.88;;;2.30;99.90;;;;;;4999507;28;20033;-73
2021/04/26 03:31:53;;;;;;;8.70;6.35;;;2.30;99.90;;;;;;5012482;28;20045;-74
2021/04/26 03:34:19;;;;;;;8.25;6.53;;;2.40;99.90;;;;;;5013616;28;20053;-75
2021/04/26 03:36:45;;;;;;;10.85;6.45;;;2.30;99.90;;;;;;5013747;28;20515;-74
2021/04/26 03:39:14;;;;;;;9.45;6.88;;;2.20;99.90;;;;;;5000366;28;20065;-74
2021/04/26 03:41:41;;;;;;;8.63;5.90;;;2.10;99.90;;;;;;5013371;28;20495;-74
2021/04/26 03:44:17;;;;;;;9.23;6.57;;;2.10;99.90;;;;;;5012051;28;20072;-75
2021/04/26 03:46:58;;;;;;;8.82;6.20;;;2.20;99.90;;;;;;5013490;28;20026;-74
2021/04/26 03:49:25;;;;;;;9.73;6.63;;;2.10;99.90;;;;;;5013808;28;20018;-75
2021/04/26 03:51:51;;;;;;;8.18;6.55;;;2.10;99.90;;;;;;5013557;28;20095;-74
2021/04/26 03:54:16;;;;;;;10.10;6.93;;;2.00;99.90;;;;;;5013184;28;20472;-74
2021/04/26 03:56:42;;;;;;;12.52;6.60;;;2.20;99.90;;;;;;5012571;28;20026;-73
2021/04/26 03:59:08;;;;;;;8.90;6.72;;;1.90;99.90;;;;;;5012884;28;20113;-74
2021/04/26 04:01:34;;;;;;;10.15;7.30;;;1.90;99.90;;;;;;5013041;28;20080;-75
2021/04/26 04:03:59;;;;;;;7.80;6.25;;;2.00;99.90;;;;;;5013122;28;20068;-75
2021/04/26 04:06:25;;;;;;;7.68;5.78;;;2.00;99.90;;;;;;5011782;28;20054;-74
2021/04/26 04:08:50;;;;;;;9.40;6.50;;;1.90;99.90;;;;;;5003722;28;20465;-74
2021/04/26 04:11:16;;;;;;;7.85;6.25;;;1.90;99.90;;;;;;5006499;28;20030;-72
2021/04/26 04:13:42;;;;;;;8.85;6.40;;;1.90;99.90;;;;;;5002483;28;20503;-73
2021/04/26 04:16:08;;;;;;;10.93;6.70;;;1.90;99.90;;;;;;5012971;28;20030;-71
2021/04/26 04:18:33;;;;;;;8.63;6.78;;;1.80;99.90;;;;;;5012895;28;20097;-72
2021/04/26 04:20:59;;;;;;;7.80;6.07;;;1.80;99.90;;;;;;5012820;28;20025;-72
2021/04/26 04:23:25;;;;;;;9.32;6.25;;;1.60;99.90;;;;;;5012801;28;20030;-72
2021/04/26 04:25:50;;;;;;;10.30;6.68;;;1.70;99.90;;;;;;4999500;28;20114;-72
2021/04/26 04:28:16;;;;;;;9.70;6.80;;;1.60;99.90;;;;;;5012636;28;20033;-72
2021/04/26 04:30:41;;;;;;;12.18;7.00;;;1.60;99.90;;;;;;5012735;28;20518;-72
2021/04/26 04:33:08;;;;;;;10.88;6.70;;;1.60;99.90;;;;;;5003666;28;20032;-73
2021/04/26 04:35:34;;;;;;;9.85;6.70;;;1.50;99.90;;;;;;5007120;28;20022;-72
2021/04/26 04:37:59;;;;;;;10.15;6.72;;;1.40;99.90;;;;;;5003678;28;20034;-72
2021/04/26 04:40:25;;;;;;;10.43;6.93;;;1.30;99.90;;;;;;5004806;28;20026;-72
2021/04/26 04:42:51;;;;;;;8.40;6.07;;;1.50;99.90;;;;;;4992948;28;20567;-71
2021/04/26 04:45:19;;;;;;;8.95;6.45;;;1.40;99.90;;;;;;5005860;28;20034;-71
2021/04/26 04:47:45;;;;;;;9.77;6.70;;;1.40;99.90;;;;;;5002030;28;20030;-70
2021/04/26 04:50:11;;;;;;;8.85;6.38;;;1.80;99.90;;;;;;5012321;28;20080;-71
2021/04/26 04:52:37;;;;;;;9.00;6.63;;;1.70;99.90;;;;;;5012221;28;20026;-71
2021/04/26 04:55:03;;;;;;;8.55;6.45;;;1.70;99.90;;;;;;5012114;28;20030;-72
2021/04/26 04:57:28;;;;;;;9.55;6.80;;;1.80;99.90;;;;;;5012275;28;20029;-74
2021/04/26 04:59:54;;;;;;;8.68;6.10;;;1.90;99.90;;;;;;5012240;28;20034;-73
2021/04/26 05:02:20;;;;;;;10.05;6.78;;;2.10;99.90;;;;;;5012095;28;20022;-74
2021/04/26 05:04:45;;;;;;;11.55;7.07;;;2.10;99.90;;;;;;5014813;28;20026;-74
2021/04/26 05:07:11;;;;;;;11.27;6.45;;;2.10;99.90;;;;;;5022920;28;20026;-74
2021/04/26 05:09:36;;;;;;;9.15;6.40;;;2.20;99.90;;;;;;5010898;28;20057;-73
2021/04/26 05:12:02;;;;;;;7.15;5.95;;;2.10;99.90;;;;;;5010905;28;20076;-72
2021/04/26 05:14:28;;;;;;;8.13;5.97;;;2.20;99.90;;;;;;5011857;28;20623;-73
2021/04/26 05:16:55;;;;;;;10.05;6.00;;;2.40;99.90;;;;;;5012362;28;20077;-73
2021/04/26 05:19:20;;;;;;;10.27;6.53;;;2.40;99.90;;;;;;5012121;28;20461;-74
2021/04/26 05:21:46;;;;;;;8.50;6.07;;;2.60;99.90;;;;;;5011937;28;20030;-73
2021/04/26 05:24:11;;;;;;;9.23;5.80;;;2.70;99.90;;;;;;5011773;28;20030;-73
2021/04/26 05:26:37;;;;;;;11.23;6.05;;;2.80;99.90;;;;;;5012046;28;20093;-74
2021/04/26 05:29:03;;;;;;;8.68;6.25;;;3.10;99.90;;;;;;5012055;28;20038;-73
2021/04/26 05:31:28;;;;;;;9.35;6.03;;;3.20;99.90;;;;;;5011706;28;20034;-73
2021/04/26 05:33:54;;;;;;;7.90;5.50;;;3.20;99.90;;;;;;5010472;28;20507;-74
2021/04/26 05:36:19;;;;;;;7.22;5.30;;;3.40;99.90;;;;;;5011764;28;20030;-67
2021/04/26 05:38:45;;;;;;;8.98;5.85;;;3.40;99.90;;;;;;5012125;28;20073;-68
2021/04/26 05:41:10;;;;;;;6.72;5.80;;;3.70;99.90;;;;;;5012009;28;20034;-72
2021/04/26 05:43:36;;;;;;;7.88;5.38;;;3.70;99.90;;;;;;5010544;28;20088;-73
2021/04/26 05:46:02;;;;;;;8.85;5.20;;;3.80;99.90;;;;;;5011705;28;20400;-73
2021/04/26 05:48:27;;;;;;;6.93;5.15;;;3.80;99.90;;;;;;5011900;28;20050;-73
2021/04/26 05:50:53;;;;;;;7.93;5.47;;;3.90;99.90;;;;;;5011946;28;20365;-73
2021/04/26 05:53:20;;;;;;;8.40;5.05;;;4.00;99.90;;;;;;5011736;28;20454;-71
2021/04/26 05:55:46;;;;;;;7.72;4.93;;;4.20;99.90;;;;;;5011865;28;20026;-72
2021/04/26 05:58:11;;;;;;;6.10;4.82;;;4.30;99.90;;;;;;5012113;28;20101;-72
2021/04/26 06:00:37;;;;;;;7.25;4.53;;;4.30;99.90;;;;;;5011222;28;20026;-73
2021/04/26 06:03:02;;;;;;;6.93;4.97;;;4.40;99.90;;;;;;5010676;28;20054;-74
2021/04/26 06:05:28;;;;;;;7.38;4.82;;;4.70;99.90;;;;;;5018596;28;20494;-73
2021/04/26 06:07:53;;;;;;;8.50;4.65;;;4.80;99.90;;;;;;5017097;28;20528;-71
2021/04/26 06:10:19;;;;;;;6.47;4.03;;;5.00;99.90;;;;;;5011818;28;20030;-72
2021/04/26 06:12:44;;;;;;;4.70;4.15;;;5.20;99.90;;;;;;5010421;28;20054;-72
2021/04/26 06:15:10;;;;;;;6.35;3.78;;;5.40;99.90;;;;;;5011488;28;20511;-72
2021/04/26 06:17:36;;;;;;;6.47;3.70;;;5.50;99.90;;;;;;5010281;28;20022;-73
2021/04/26 06:20:02;;;;;;;6.63;3.78;;;5.60;99.90;;;;;;5011714;28;20409;-71
2021/04/26 06:22:28;;;;;;;5.40;4.20;;;5.70;99.90;;;;;;5015156;28;20032;-71
2021/04/26 06:24:53;;;;;;;5.00;3.47;;;5.80;99.90;;;;;;5015059;28;20025;-73
2021/04/26 06:27:19;;;;;;;3.72;3.25;;;5.90;99.90;;;;;;5014134;28;20476;-73
2021/04/26 06:29:45;;;;;;;5.50;3.20;;;6.00;99.90;;;;;;5014036;28;20022;-71
2021/04/26 06:32:10;;;;;;;4.35;3.17;;;6.00;99.90;;;;;;5014979;28;20487;-72
2021/04/26 06:34:36;;;;;;;4.45;2.83;;;6.00;99.90;;;;;;5015005;28;20075;-72
2021/04/26 06:37:01;;;;;;;5.25;2.97;;;6.10;99.90;;;;;;5013994;28;20048;-73
2021/04/26 06:39:27;;;;;;;4.35;3.20;;;6.30;99.90;;;;;;5014989;28;20037;-71
2021/04/26 06:41:53;;;;;;;4.53;2.45;;;6.30;99.90;;;;;;5001724;28;20092;-71
2021/04/26 06:44:18;;;;;;;4.60;2.17;;;6.30;99.90;;;;;;5014788;28;20029;-72
2021/04/26 06:46:44;;;;;;;4.63;2.60;;;6.40;99.90;;;;;;5001763;28;20046;-75
2021/04/26 06:49:09;;;;;;;5.95;2.75;;;6.60;99.90;;;;;;5014843;28;20014;-72
2021/04/26 06:51:35;;;;;;;3.42;2.28;;;6.70;99.90;;;;;;5014448;28;20058;-72
2021/04/26 06:54:01;;;;;;;3.47;2.38;;;6.70;99.90;;;;;;5012434;28;20476;-72
2021/04/26 06:56:26;;;;;;;3.17;2.00;;;6.70;99.90;;;;;;5011436;28;20018;-72
2021/04/26 06:58:52;;;;;;;5.88;1.77;;;6.70;99.90;;;;;;5012664;28;20034;-72
2021/04/26 07:01:17;;;;;;;4.50;2.20;;;6.90;99.90;;;;;;5012621;28;20494;-72
2021/04/26 07:03:43;;;;;;;3.10;1.95;;;7.00;99.90;;;;;;5011341;28;20064;-71
2021/04/26 07:06:08;;;;;;;3.10;1.95;;;7.00;99.90;;;;;;5025964;28;20431;-72
2021/04/26 07:08:34;;;;;;;3.53;2.10;;;7.00;99.90;;;;;;5012805;28;20046;-73
2021/04/26 07:10:59;;;;;;;2.88;1.88;;;7.00;99.90;;;;;;5014400;28;20018;-72
2021/04/26 07:13:26;;;;;;;4.82;2.20;;;7.00;99.90;;;;;;5014120;28;20053;-72
2021/04/26 07:15:51;;;;;;;4.85;2.67;;;7.20;99.90;;;;;;5014378;28;20044;-71
2021/04/26 07:18:17;;;;;;;2.83;1.95;;;7.20;98.80;;;;;;5014357;28;20055;-73
2021/04/26 07:20:42;;;;;;;3.00;2.30;;;7.20;99.40;;;;;;5014343;28;20032;-72
2021/04/26 07:23:08;;;;;;;3.80;2.10;;;7.20;97.20;;;;;;5014686;28;20033;-72
2021/04/26 07:25:33;;;;;;;2.83;1.60;;;7.30;97.80;;;;;;5012971;28;20022;-71
2021/04/26 07:27:59;;;;;;;2.08;1.92;;;7.40;97.90;;;;;;5013459;28;20113;-72
2021/04/26 07:30:24;;;;;;;3.15;1.95;;;7.50;98.50;;;;;;5014439;28;20079;-72
2021/04/26 07:32:50;;;;;;;4.40;2.28;;;7.40;97.30;;;;;;5000901;28;20069;-72
2021/04/26 07:35:16;;;;;;;2.40;1.65;;;7.30;97.10;;;;;;5012895;28;20119;-72
2021/04/26 07:37:43;;;;;;;5.28;1.90;;;7.30;96.90;;;;;;5013434;28;20026;-72
2021/04/26 07:40:10;;;;;;;2.42;1.80;;;7.60;96.40;;;;;;5015011;28;20041;-72
2021/04/26 07:42:36;;;;;;;2.65;1.98;;;7.70;94.70;;;;;;5013081;28;20056;-72
2021/04/26 07:45:03;;;;;;;3.42;1.50;;;7.70;95.50;;;;;;5013220;28;20108;-71
2021/04/26 07:47:29;;;;;;;4.28;1.90;;;7.70;95.70;;;;;;5000716;28;20026;-72
2021/04/26 07:49:54;;;;;;;3.50;1.77;;;7.80;92.70;;;;;;5014676;28;20097;-72
2021/04/26 07:52:20;;;;;;;7.10;2.25;;;7.70;93.40;;;;;;5013126;28;20018;-72
2021/04/26 07:54:45;;;;;;;3.65;1.65;;;7.60;93.80;;;;;;5001106;28;20489;-73
2021/04/26 07:57:11;;;;;;;2.88;2.10;;;7.60;94.10;;;;;;5013346;28;20026;-72
2021/04/26 07:59:36;;;;;;;4.80;1.92;;;7.80;93.80;;;;;;5001072;28;20031;-72
2021/04/26 08:02:02;;;;;;;2.45;2.03;;;8.00;92.90;;;;;;5012314;28;20025;-73
2021/04/26 08:04:27;;;;;;;5.03;1.80;;;8.00;94.20;;;;;;5013552;28;20037;-72
2021/04/26 08:06:53;;;;;;;4.97;2.10;;;8.00;93.30;;;;;;5012983;28;20084;-72
2021/04/26 08:09:19;;;;;;;3.05;1.75;;;8.00;93.20;;;;;;5013151;28;20022;-72
2021/04/26 08:11:44;;;;;;;4.18;2.00;;;7.90;93.90;;;;;;5013057;28;20045;-72
2021/04/26 08:14:10;;;;;;;1.90;1.60;;;8.00;93.40;;;;;;5013256;28;20030;-71
2021/04/26 08:16:35;;;;;;;1.83;1.70;;;8.10;92.10;;;;;;5013441;28;20030;-72
2021/04/26 08:19:01;;;;;;;2.63;1.60;;;8.20;91.20;;;;;;5013087;28;20115;-72
2021/04/26 08:21:27;;;;;;;3.45;1.90;;;8.10;91.30;;;;;;5012746;28;20033;-72
2021/04/26 08:23:56;;;;;;;4.57;1.90;;;8.30;92.30;;;;;;4999631;28;20026;-72
2021/04/26 08:26:22;;;;;;;1.80;1.42;;;8.40;91.40;;;;;;5012850;28;20018;-72
2021/04/26 08:28:47;;;;;;;2.58;1.73;;;8.40;90.80;;;;;;5011571;28;20041;-72
2021/04/26 08:31:13;;;;;;;3.53;1.52;;;8.30;91.00;;;;;;5012630;28;20030;-72
2021/04/26 08:33:39;;;;;;;2.10;1.70;;;8.50;92.40;;;;;;5011510;28;20373;-72
2021/04/26 08:36:06;;;;;;;5.47;1.77;;;8.60;91.30;;;;;;5012776;28;20026;-71
2021/04/26 08:38:32;;;;;;;3.15;1.83;;;8.50;90.40;;;;;;5012546;28;20038;-72
2021/04/26 08:40:57;;;;;;;2.92;1.90;;;8.40;90.60;;;;;;5012817;28;20476;-73
2021/04/26 08:43:23;;;;;;;2.50;1.70;;;8.40;91.20;;;;;;5011797;28;20044;-72
2021/04/26 08:45:49;;;;;;;1.75;1.48;;;8.60;93.00;;;;;;5011152;28;20045;-71
2021/04/26 08:48:15;;;;;;;4.90;1.95;;;8.90;90.00;;;;;;5012592;28;20022;-71
2021/04/26 08:50:40;;;;;;;2.22;1.80;;;8.80;91.80;;;;;;5012604;28;20037;-72
2021/04/26 08:53:06;;;;;;;1.83;1.58;;;9.00;91.40;;;;;;5012673;28;20029;-72
2021/04/26 08:55:32;;;;;;;3.88;1.73;;;9.10;88.10;;;;;;4999155;28;20037;-72
2021/04/26 08:57:58;;;;;;;4.72;1.80;;;9.10;86.30;;;;;;5013245;28;20128;-72
2021/04/26 09:00:24;;;;;;;1.90;1.70;;;8.60;89.50;;;;;;5013129;28;20022;-72
2021/04/26 09:02:59;;;;;;;4.78;1.50;;;8.80;86.00;;;;;;5011425;28;20487;-72
2021/04/26 09:05:30;;;;;;;4.75;1.70;;;9.00;85.80;;;;;;5010921;28;20498;-72
2021/04/26 09:07:58;;;;;;;2.70;2.05;;;8.90;87.80;;;;;;5011415;28;20058;-71
2021/04/26 09:10:40;;;;;;;3.80;1.90;;;8.70;87.70;;;;;;5012585;28;20614;-73
2021/04/26 09:13:30;;;;;;;3.40;1.77;;;8.80;88.10;;;;;;5012318;28;20041;-73
2021/04/26 09:16:22;;;;;;;4.13;1.88;;;8.60;84.60;;;;;;5011713;28;20017;-73
2021/04/26 09:18:58;;;;;;;1.88;1.60;;;8.70;87.60;;;;;;5011544;28;20185;-72
2021/04/26 09:21:25;;;;;;;2.10;1.50;;;9.20;86.20;;;;;;5013251;28;20070;-73
2021/04/26 09:24:19;;;;;;;3.03;1.90;;;9.10;83.10;;;;;;5011551;28;20026;-73
2021/04/26 09:26:50;;;;;;;2.38;1.50;;;8.90;82.10;;;;;;5012736;28;20305;-72
2021/04/26 09:29:22;;;;;;;3.08;1.40;;;8.90;85.70;;;;;;5009806;28;20022;-72
2021/04/26 09:32:12;;;;;;;3.03;1.88;;;9.00;81.40;;;;;;5011174;28;20030;-73
2021/04/26 09:34:39;;;;;;;4.07;1.70;;;9.10;83.00;;;;;;4999912;28;20120;-72
2021/04/26 09:37:10;;;;;;;3.58;1.60;;;9.10;80.20;;;;;;5011641;28;20057;-71
2021/04/26 09:39:58;;;;;;;2.60;1.85;;;9.20;79.50;;;;;;5011612;28;20124;-72
2021/04/26 09:42:36;;;;;;;6.60;1.88;;;9.60;79.50;;;;;;5011219;28;20061;-72
2021/04/26 09:45:21;;;;;;;4.10;1.90;;;9.60;77.50;;;;;;5011135;28;20033;-72
2021/04/26 09:47:48;;;;;;;2.00;1.60;;;9.70;78.20;;;;;;5012567;28;20030;-72
2021/04/26 09:50:13;;;;;;;3.08;1.60;;;10.00;77.10;;;;;;5011551;28;20026;-72
2021/04/26 09:52:39;;;;;;;2.88;1.58;;;9.80;75.10;;;;;;5011741;28;20033;-72
2021/04/26 09:55:05;;;;;;;2.97;1.70;;;10.00;76.60;;;;;;5011988;28;20033;-72
2021/04/26 09:57:31;;;;;;;3.53;1.48;;;10.30;73.70;;;;;;5015842;28;20030;-72
2021/04/26 10:00:00;;;;;;;1.55;1.40;;;10.50;76.10;;;;;;5002575;28;20084;-72
2021/04/26 10:02:26;;;;;;;4.22;1.88;;;10.60;75.30;;;;;;5015402;28;20400;-72
2021/04/26 10:04:52;;;;;;;2.28;2.03;;;10.70;74.00;;;;;;5014977;28;20030;-72
2021/04/26 10:07:18;;;;;;;2.17;1.55;;;10.10;75.60;;;;;;5014844;28;20481;-72
2021/04/26 10:09:45;;;;;;;2.45;1.50;;;9.90;74.60;;;;;;5014008;28;20112;-72
2021/04/26 10:12:13;;;;;;;4.75;1.67;;;10.00;75.50;;;;;;5013499;28;20144;-72
2021/04/26 10:14:40;;;;;;;2.63;1.55;;;10.20;75.00;;;;;;5013665;28;20468;-72
2021/04/26 10:17:12;;;;;;;1.67;1.33;;;10.00;73.50;;;;;;5015099;28;20498;-72
2021/04/26 10:19:47;;;;;;;3.88;1.48;;;10.20;72.10;;;;;;5013469;28;20670;-72
2021/04/26 10:22:14;;;;;;;3.25;1.58;;;10.40;73.30;;;;;;5015121;28;20025;-72
2021/04/26 10:24:55;;;;;;;2.72;1.60;;;10.00;70.00;;;;;;5014815;28;20419;-72
2021/04/26 10:27:31;;;;;;;10.23;1.90;;;10.20;70.70;;;;;;5013640;28;20022;-73
2021/04/26 10:30:02;;;;;;;;;;;10.20;69.60;;;;;;5015526;28;20369;-72
2021/04/26 10:32:28;;;;;;;3.72;1.70;;;10.40;68.80;;;;;;5030013;28;19956;-72
2021/04/26 10:34:54;;;;;;;5.93;1.80;;;10.70;69.80;;;;;;5014420;28;20061;-72
2021/04/26 10:37:25;;;;;;;2.42;1.58;;;11.00;67.50;;;;;;5014771;28;20093;-72
2021/04/26 10:39:56;;;;;;;3.65;1.60;;;11.20;69.40;;;;;;5014745;28;20057;-73
2021/04/26 10:42:33;;;;;;;2.28;1.73;;;11.10;67.90;;;;;;5014419;28;20496;-71
2021/04/26 10:45:00;;;;;;;3.15;1.52;;;10.80;68.00;;;;;;5014586;28;20028;-72
2021/04/26 10:47:27;;;;;;;3.30;1.60;;;10.90;65.30;;;;;;5012865;28;20112;-72
2021/04/26 10:50:15;;;;;;;2.92;1.40;;;10.70;66.50;;;;;;5013092;28;20068;-72
2021/04/26 10:52:57;;;;;;;1.65;1.55;;;11.00;63.90;;;;;;5007774;28;20018;-72
2021/04/26 10:55:22;;;;;;;3.25;1.75;;;10.80;64.70;;;;;;5014333;28;20022;-72
2021/04/26 10:58:00;;;;;;;1.70;1.50;;;10.90;64.80;;;;;;5013252;28;20455;-72
2021/04/26 11:00:32;;;;;;;2.05;1.70;;;11.20;62.50;;;;;;5013759;28;20109;-73
2021/04/26 11:03:10;;;;;;;1.88;1.50;;;11.00;63.60;;;;;;5015773;28;20472;-72
2021/04/26 11:05:44;;;;;;;3.45;1.50;;;11.20;65.20;;;;;;5009445;28;20025;-73
2021/04/26 11:08:33;;;;;;;3.13;1.70;;;11.40;64.50;;;;;;5012490;28;20048;-72
2021/04/26 11:11:16;;;;;;;3.70;1.50;;;11.40;61.80;;;;;;5014146;28;20010;-72
2021/04/26 11:13:43;;;;;;;3.55;1.80;;;11.30;62.20;;;;;;5007295;28;20022;-72
2021/04/26 11:16:15;;;;;;;2.38;1.42;;;11.70;62.80;;;;;;5012673;28;20018;-72
2021/04/26 11:18:54;;;;;;;1.95;1.50;;;11.80;61.90;;;;;;5013610;28;20030;-72
2021/04/26 11:21:44;;;;;;;2.00;1.38;;;11.70;60.70;;;;;;5013767;28;20040;-72
2021/04/26 11:24:12;;;;;;;1.88;1.55;;;12.20;63.40;;;;;;5012263;28;20022;-72
2021/04/26 11:26:37;;;;;;;1.65;1.55;;;12.30;60.20;;;;;;5011761;28;20117;-72
2021/04/26 11:29:11;;;;;;;3.42;1.67;;;12.40;58.10;;;;;;5013834;28;20053;-73
2021/04/26 11:31:42;;;;;;;4.15;1.80;;;12.60;59.10;;;;;;5013802;28;20032;-72
2021/04/26 11:34:10;;;;;;;2.83;1.80;;;12.80;59.20;;;;;;5000287;28;20036;-72
2021/04/26 11:36:37;;;;;;;1.90;1.50;;;13.00;60.70;;;;;;5002114;28;20500;-72
2021/04/26 11:39:07;;;;;;;2.47;1.50;;;12.50;56.30;;;;;;5005993;28;20038;-72
2021/04/26 11:41:40;;;;;;;2.08;1.38;;;12.10;56.90;;;;;;5004666;28;20503;-73
2021/04/26 11:44:06;;;;;;;2.17;1.48;;;12.50;60.30;;;;;;5013302;28;20022;-73
2021/04/26 11:46:33;;;;;;;2.28;1.50;;;12.80;58.70;;;;;;5013223;28;20105;-73
2021/04/26 11:49:37;;;;;;;3.35;1.50;;;12.60;59.20;;;;;;5013625;28;20013;-73
2021/04/26 11:52:11;;;;;;;1.60;1.38;;;12.70;58.80;;;;;;4982526;28;20117;-69
2021/04/26 11:54:38;;;;;;;2.67;1.50;;;12.40;60.60;;;;;;5011905;28;20037;-73
2021/04/26 11:57:08;;;;;;;2.38;1.58;;;12.80;57.50;;;;;;5013222;28;20036;-73
2021/04/26 11:59:35;;;;;;;3.20;1.42;;;12.90;57.60;;;;;;5011947;28;20037;-73
2021/04/26 12:02:01;;;;;;;1.77;1.40;;;12.70;57.80;;;;;;5011748;28;20026;-72
2021/04/26 12:04:38;;;;;;;1.63;1.52;;;12.70;54.60;;;;;;5011209;28;20373;-72
2021/04/26 12:07:05;;;;;;;2.15;1.60;;;13.10;57.10;;;;;;5000982;28;20022;-72
2021/04/26 12:09:32;;;;;;;2.88;1.70;;;13.50;55.70;;;;;;5011042;28;20065;-73
2021/04/26 12:11:59;;;;;;;2.20;1.70;;;13.80;55.60;;;;;;5011070;28;20076;-73
2021/04/26 12:14:24;;;;;;;2.03;1.60;;;14.10;57.10;;;;;;5010695;28;20570;-72
2021/04/26 12:16:50;;;;;;;1.70;1.60;;;14.40;54.50;;;;;;5012945;28;20069;-73
2021/04/26 12:19:29;;;;;;;2.45;1.65;;;14.30;55.00;;;;;;4998726;28;20473;-73
2021/04/26 12:21:55;;;;;;;1.52;1.42;;;13.60;55.10;;;;;;5012943;28;20080;-72
2021/04/26 12:24:20;;;;;;;1.88;1.60;;;13.50;54.40;;;;;;5012637;28;20033;-73
2021/04/26 12:26:46;;;;;;;1.95;1.75;;;13.70;56.80;;;;;;5012886;28;20022;-73
2021/04/26 12:29:25;;;;;;;1.80;1.63;;;14.30;55.60;;;;;;5012832;28;20105;-72
2021/04/26 12:32:10;;;;;;;1.80;1.70;;;14.60;55.90;;;;;;5012768;28;20380;-71
2021/04/26 12:34:45;;;;;;;1.80;1.65;;;15.20;54.40;;;;;;5000675;28;20033;-72
2021/04/26 12:37:12;;;;;;;1.70;1.60;;;15.80;55.60;;;;;;5012669;28;20109;-73
2021/04/26 12:39:37;;;;;;;2.47;2.03;;;15.60;53.20;;;;;;5011380;28;20597;-72
2021/04/26 12:42:11;;;;;;;3.30;1.73;;;15.80;52.20;;;;;;4999214;28;20034;-73
2021/04/26 12:44:37;;;;;;;2.55;2.00;;;15.70;53.00;;;;;;5011238;28;20421;-73
2021/04/26 12:47:23;;;;;;;2.25;2.05;;;16.20;50.90;;;;;;4999073;28;20069;-72
2021/04/26 12:50:09;;;;;;;2.28;1.90;;;16.30;50.60;;;;;;5011325;28;20448;-73
2021/04/26 12:52:35;;;;;;;1.80;1.70;;;15.80;52.40;;;;;;5011451;28;20484;-73
2021/04/26 12:55:05;;;;;;;2.60;1.75;;;17.30;52.30;;;;;;4999398;28;20036;-73
2021/04/26 12:57:31;;;;;;;2.30;1.67;;;17.10;49.00;;;;;;5011441;28;20018;-73
2021/04/26 12:59:56;;;;;;;2.00;1.80;;;17.30;49.10;;;;;;5012544;28;20026;-73